createdAt,value
2023-04-11T00:02:11.217Z,99.90
2023-04-11T00:05:05.203Z,99.90
2023-04-11T00:07:52.288Z,99.90
2023-04-11T00:10:46.035Z,99.90
2023-04-11T00:13:41.057Z,99.90
2023-04-11T00:16:35.074Z,99.90
2023-04-11T00:19:23.568Z,99.90
2023-04-11T00:22:18.063Z,99.90
2023-04-11T00:25:13.126Z,99.90
2023-04-11T00:28:00.362Z,99.90
2023-04-11T00:30:54.118Z,99.90
2023-04-11T00:33:41.251Z,99.90
2023-04-11T00:36:35.114Z,99.90
2023-04-11T00:39:22.870Z,99.90
2023-04-11T00:42:16.165Z,99.90
2023-04-11T00:45:03.580Z,99.90
2023-04-11T00:47:58.137Z,99.90
2023-04-11T00:50:45.274Z,99.90
2023-04-11T00:53:39.090Z,99.90
2023-04-11T00:56:33.100Z,99.90
2023-04-11T00:59:20.588Z,99.90
2023-04-11T01:02:15.286Z,99.90
2023-04-11T01:05:03.894Z,99.90
2023-04-11T01:07:59.109Z,99.90
2023-04-11T01:10:46.653Z,99.90
2023-04-11T01:13:42.190Z,99.90
2023-04-11T01:16:29.639Z,99.90
2023-04-11T01:19:28.135Z,99.90
2023-04-11T01:22:24.158Z,99.90
2023-04-11T01:25:12.381Z,99.90
2023-04-11T01:28:06.157Z,99.90
2023-04-11T01:30:53.341Z,99.90
2023-04-11T01:33:47.203Z,99.90
2023-04-11T01:36:34.692Z,99.90
2023-04-11T01:39:28.187Z,99.90
2023-04-11T01:42:15.888Z,99.90
2023-04-11T01:45:13.324Z,99.90
2023-04-11T01:48:05.670Z,99.90
2023-04-11T01:51:02.166Z,99.90
2023-04-11T01:53:49.301Z,99.90
2023-04-11T01:56:43.237Z,99.90
2023-04-11T01:59:30.442Z,99.90
2023-04-11T02:02:24.387Z,99.90
2023-04-11T02:05:18.208Z,99.90
2023-04-11T02:08:05.456Z,99.90
2023-04-11T02:10:59.291Z,99.90
2023-04-11T02:13:46.615Z,99.90
2023-04-11T02:16:40.266Z,99.90
2023-04-11T02:19:34.244Z,99.90
2023-04-11T02:22:21.304Z,99.90
2023-04-11T02:25:21.248Z,99.90
2023-04-11T02:28:15.280Z,99.90
2023-04-11T02:31:06.080Z,99.90
2023-04-11T02:33:59.300Z,99.90
2023-04-11T02:36:53.258Z,99.90
2023-04-11T02:39:47.245Z,99.90
2023-04-11T02:42:34.495Z,99.90
2023-04-11T02:45:28.303Z,99.90
2023-04-11T02:48:29.362Z,99.90
2023-04-11T02:51:29.295Z,99.90
2023-04-11T02:54:23.433Z,99.90
2023-04-11T02:57:10.668Z,99.90
2023-04-11T03:00:04.359Z,99.90
2023-04-11T03:02:58.389Z,99.90
2023-04-11T03:05:45.527Z,99.90
2023-04-11T03:08:39.369Z,99.90
2023-04-11T03:11:26.394Z,99.90
2023-04-11T03:14:20.355Z,99.90
2023-04-11T03:17:07.465Z,99.90
2023-04-11T03:20:01.352Z,99.90
2023-04-11T03:22:56.375Z,99.90
2023-04-11T03:25:48.059Z,99.90
2023-04-11T03:28:41.478Z,99.90
2023-04-11T03:31:30.240Z,99.90
2023-04-11T03:34:24.367Z,99.90
2023-04-11T03:37:18.404Z,99.90
2023-04-11T03:40:08.334Z,99.90
2023-04-11T03:43:04.785Z,99.90
2023-04-11T03:45:53.370Z,99.90
2023-04-11T03:48:47.410Z,99.90
2023-04-11T03:51:34.594Z,99.90
2023-04-11T03:54:28.390Z,99.90
2023-04-11T03:57:15.561Z,99.90
2023-04-11T04:00:12.430Z,99.90
2023-04-11T04:03:06.515Z,99.90
2023-04-11T04:06:00.445Z,99.90
2023-04-11T04:08:54.444Z,99.90
2023-04-11T04:11:41.429Z,99.90
2023-04-11T04:14:35.450Z,99.90
2023-04-11T04:17:30.416Z,99.90
2023-04-11T04:20:24.494Z,99.90
2023-04-11T04:23:14.158Z,99.90
2023-04-11T04:26:08.454Z,99.90
2023-04-11T04:29:04.493Z,99.90
2023-04-11T04:31:53.157Z,99.90
2023-04-11T04:34:55.470Z,99.90
2023-04-11T04:37:46.029Z,99.90
2023-04-11T04:40:44.473Z,99.90
2023-04-11T04:43:32.954Z,99.90
2023-04-11T04:46:26.486Z,99.90
2023-04-11T04:49:13.619Z,99.90
2023-04-11T04:52:07.528Z,99.90
2023-04-11T04:55:04.484Z,99.90
2023-04-11T04:57:51.565Z,99.90
2023-04-11T05:00:46.514Z,99.90
2023-04-11T05:03:35.654Z,99.90
2023-04-11T05:06:29.618Z,99.90
2023-04-11T05:09:17.120Z,99.90
2023-04-11T05:12:10.510Z,99.90
2023-04-11T05:14:57.686Z,99.90
2023-04-11T05:17:51.545Z,99.90
2023-04-11T05:20:46.654Z,99.90
2023-04-11T05:23:33.789Z,99.90
2023-04-11T05:26:27.606Z,99.90
2023-04-11T05:29:14.708Z,99.90
2023-04-11T05:32:08.558Z,99.90
2023-04-11T05:34:59.134Z,99.90
2023-04-11T05:37:53.581Z,99.90
2023-04-11T05:40:47.551Z,99.90
2023-04-11T05:43:41.601Z,99.90
2023-04-11T05:46:29.544Z,99.90
2023-04-11T05:49:23.581Z,99.90
2023-04-11T05:52:17.597Z,99.90
2023-04-11T05:55:06.043Z,99.90
2023-04-11T05:57:59.579Z,99.90
2023-04-11T06:00:53.611Z,99.90
2023-04-11T06:03:40.858Z,99.90
2023-04-11T06:06:35.615Z,99.90
2023-04-11T06:09:30.170Z,99.90
2023-04-11T06:12:24.653Z,99.90
2023-04-11T06:15:12.210Z,99.90
2023-04-11T06:18:05.681Z,99.90
2023-04-11T06:20:52.860Z,99.90
2023-04-11T06:23:46.619Z,99.90
2023-04-11T06:26:41.663Z,99.90
2023-04-11T06:29:28.749Z,99.90
2023-04-11T06:32:22.692Z,99.90
2023-04-11T06:35:09.997Z,99.90
2023-04-11T06:38:03.672Z,99.90
2023-04-11T06:40:52.200Z,99.90
2023-04-11T06:43:45.635Z,99.90
2023-04-11T06:46:32.698Z,99.90
2023-04-11T06:49:26.665Z,99.90
2023-04-11T06:52:20.713Z,99.90
2023-04-11T06:55:08.536Z,99.90
2023-04-11T06:58:01.666Z,99.90
2023-04-11T07:00:48.782Z,99.90
2023-04-11T07:03:42.906Z,99.90
2023-04-11T07:06:37.727Z,99.90
2023-04-11T07:09:24.954Z,99.90
2023-04-11T07:12:18.764Z,99.90
2023-04-11T07:15:12.767Z,99.90
2023-04-11T07:18:00.011Z,99.90
2023-04-11T07:20:54.788Z,99.90
2023-04-11T07:23:43.172Z,99.90
2023-04-11T07:26:38.890Z,99.90
2023-04-11T07:29:32.800Z,99.90
2023-04-11T07:32:20.088Z,99.90
2023-04-11T07:35:14.809Z,99.90
2023-04-11T07:38:02.002Z,99.90
2023-04-11T07:40:55.802Z,99.90
2023-04-11T07:43:42.933Z,99.90
2023-04-11T07:46:36.764Z,99.90
2023-04-11T07:49:23.952Z,99.90
2023-04-11T07:52:17.746Z,99.90
2023-04-11T07:55:11.795Z,99.90
2023-04-11T07:57:58.906Z,99.90
2023-04-11T08:00:52.827Z,99.90
2023-04-11T08:03:46.939Z,99.90
2023-04-11T08:06:40.899Z,99.90
2023-04-11T08:09:28.033Z,99.90
2023-04-11T08:12:22.886Z,99.90
2023-04-11T08:15:10.357Z,99.90
2023-04-11T08:18:03.930Z,99.90
2023-04-11T08:20:57.815Z,99.90
2023-04-11T08:23:44.862Z,99.90
2023-04-11T08:26:44.796Z,99.90
2023-04-11T08:29:38.798Z,99.90
2023-04-11T08:32:32.882Z,99.90
2023-04-11T08:35:20.088Z,99.90
2023-04-11T08:38:13.882Z,99.90
2023-04-11T08:41:01.000Z,99.90
2023-04-11T08:43:55.990Z,99.90
2023-04-11T08:46:50.889Z,99.90
2023-04-11T08:49:37.964Z,99.90
2023-04-11T08:52:31.928Z,99.90
2023-04-11T08:55:19.115Z,99.90
2023-04-11T08:58:12.911Z,99.90
2023-04-11T09:01:27.103Z,99.90
2023-04-11T09:04:20.861Z,99.90
2023-04-11T09:07:28.937Z,99.90
2023-04-11T09:10:22.397Z,99.90
2023-04-11T09:13:30.293Z,99.90
2023-04-11T09:16:17.513Z,99.90
2023-04-11T09:19:30.959Z,99.90
2023-04-11T09:22:24.915Z,99.90
2023-04-11T09:25:12.253Z,99.90
2023-04-11T09:28:16.924Z,99.90
2023-04-11T09:31:04.084Z,99.90
2023-04-11T09:34:01.996Z,99.90
2023-04-11T09:36:55.582Z,99.90
2023-04-11T09:39:49.998Z,99.90
2023-04-11T09:42:37.200Z,99.90
2023-04-11T09:45:38.340Z,99.90
2023-04-11T09:48:45.594Z,99.90
2023-04-11T09:51:41.964Z,99.90
2023-04-11T09:54:36.948Z,99.90
2023-04-11T09:57:24.891Z,99.90
2023-04-11T10:00:25.028Z,99.90
2023-04-11T10:03:12.219Z,99.90
2023-04-11T10:06:06.013Z,99.90
2023-04-11T10:09:00.008Z,99.90
2023-04-11T10:11:53.966Z,99.90
2023-04-11T10:14:48.031Z,99.90
2023-04-11T10:17:43.079Z,99.90
2023-04-11T10:20:50.970Z,99.90
2023-04-11T10:24:17.201Z,99.90
2023-04-11T10:27:12.051Z,99.90
2023-04-11T10:29:59.152Z,99.90
2023-04-11T10:33:18.030Z,99.90
2023-04-11T10:36:17.060Z,99.90
2023-04-11T10:39:04.226Z,99.90
2023-04-11T10:41:59.086Z,99.90
2023-04-11T10:45:06.307Z,99.90
2023-04-11T10:48:03.122Z,99.90
2023-04-11T10:50:50.728Z,99.90
2023-04-11T10:53:45.104Z,99.90
2023-04-11T10:56:52.050Z,99.90
2023-04-11T10:59:39.079Z,99.90
2023-04-11T11:02:43.257Z,99.90
2023-04-11T11:05:30.555Z,99.90
2023-04-11T11:08:42.091Z,99.60
2023-04-11T11:11:36.078Z,99.90
2023-04-11T11:14:30.385Z,98.60
2023-04-11T11:17:24.104Z,96.80
2023-04-11T11:20:26.065Z,96.80
2023-04-11T11:23:20.124Z,97.30
2023-04-11T11:26:07.258Z,95.20
2023-04-11T11:29:01.181Z,94.50
2023-04-11T11:31:55.143Z,95.10
2023-04-11T11:34:42.268Z,93.90
2023-04-11T11:37:36.097Z,95.00
2023-04-11T11:40:23.533Z,94.60
2023-04-11T11:43:17.120Z,94.10
2023-04-11T11:46:08.863Z,93.50
2023-04-11T11:49:08.147Z,93.40
2023-04-11T11:51:55.290Z,93.40
2023-04-11T11:54:54.188Z,93.50
2023-04-11T11:57:53.133Z,93.00
2023-04-11T12:00:41.334Z,91.90
2023-04-11T12:03:36.404Z,92.80
2023-04-11T12:06:28.561Z,92.30
2023-04-11T12:09:23.167Z,91.90
2023-04-11T12:12:10.464Z,92.90
2023-04-11T12:15:04.237Z,93.30
2023-04-11T12:17:57.414Z,92.90
2023-04-11T12:20:51.246Z,91.90
2023-04-11T12:23:45.208Z,92.10
2023-04-11T12:26:32.298Z,91.70
2023-04-11T12:29:26.434Z,92.90
2023-04-11T12:32:13.596Z,92.70
2023-04-11T12:35:08.242Z,92.50
2023-04-11T12:37:55.878Z,92.70
2023-04-11T12:40:49.643Z,92.40
2023-04-11T12:43:44.270Z,92.70
2023-04-11T12:46:33.423Z,92.10
2023-04-11T12:49:27.212Z,90.10
2023-04-11T12:52:21.256Z,90.40
2023-04-11T12:55:16.262Z,82.70
2023-04-11T12:58:10.288Z,85.40
2023-04-11T13:00:57.447Z,89.20
2023-04-11T13:03:51.476Z,89.20
2023-04-11T13:06:45.242Z,89.10
2023-04-11T13:09:41.513Z,90.00
2023-04-11T13:12:35.311Z,89.00
2023-04-11T13:15:29.237Z,88.60
2023-04-11T13:18:16.411Z,85.40
2023-04-11T13:21:10.303Z,85.00
2023-04-11T13:23:57.349Z,87.10
2023-04-11T13:26:51.345Z,87.30
2023-04-11T13:29:46.308Z,87.40
2023-04-11T13:32:33.578Z,86.40
2023-04-11T13:35:28.304Z,85.80
2023-04-11T13:38:15.452Z,85.90
2023-04-11T13:41:09.312Z,85.80
2023-04-11T13:43:56.457Z,80.70
2023-04-11T13:46:50.310Z,80.10
2023-04-11T13:49:44.345Z,80.50
2023-04-11T13:52:31.742Z,81.60
2023-04-11T13:55:25.468Z,80.30
2023-04-11T13:58:14.370Z,80.10
2023-04-11T14:01:08.395Z,82.60
2023-04-11T14:03:55.817Z,83.10
2023-04-11T14:06:50.362Z,82.40
2023-04-11T14:09:45.423Z,80.60
2023-04-11T14:12:39.506Z,80.60
2023-04-11T14:15:26.982Z,80.70
2023-04-11T14:18:20.387Z,80.80
2023-04-11T14:21:08.197Z,81.50
2023-04-11T14:24:02.371Z,82.80
2023-04-11T14:26:50.716Z,81.70
2023-04-11T14:29:44.374Z,81.80
2023-04-11T14:32:38.424Z,81.50
2023-04-11T14:35:32.436Z,81.70
2023-04-11T14:38:26.401Z,81.90
2023-04-11T14:41:20.416Z,82.60
2023-04-11T14:44:07.567Z,82.50
2023-04-11T14:47:01.420Z,84.40
2023-04-11T14:49:55.433Z,83.80
2023-04-11T14:52:49.451Z,82.00
2023-04-11T14:55:46.485Z,81.10
2023-04-11T14:58:33.986Z,80.90
2023-04-11T15:01:28.727Z,81.40
2023-04-11T15:04:22.604Z,80.80
2023-04-11T15:07:09.816Z,81.20
2023-04-11T15:10:03.522Z,82.40
2023-04-11T15:12:50.822Z,83.20
2023-04-11T15:15:44.505Z,82.20
2023-04-11T15:18:32.275Z,83.20
2023-04-11T15:21:25.450Z,82.40
2023-04-11T15:24:12.601Z,81.30
2023-04-11T15:27:06.484Z,79.80
2023-04-11T15:29:55.954Z,80.50
2023-04-11T15:32:50.457Z,81.30
2023-04-11T15:35:44.570Z,80.10
2023-04-11T15:38:31.709Z,80.10
2023-04-11T15:41:25.463Z,80.10
2023-04-11T15:44:12.531Z,79.50
2023-04-11T15:47:06.486Z,78.30
2023-04-11T15:49:53.629Z,77.50
2023-04-11T15:52:47.465Z,77.10
2023-04-11T15:55:44.543Z,77.80
2023-04-11T15:58:38.528Z,78.30
2023-04-11T16:01:32.629Z,79.50
2023-04-11T16:04:22.544Z,81.00
2023-04-11T16:07:16.536Z,83.60
2023-04-11T16:10:03.882Z,85.40
2023-04-11T16:12:57.511Z,85.40
2023-04-11T16:15:51.566Z,86.00
2023-04-11T16:18:45.515Z,86.90
2023-04-11T16:21:32.630Z,88.00
2023-04-11T16:24:26.524Z,88.70
2023-04-11T16:27:20.523Z,89.90
2023-04-11T16:30:16.661Z,90.70
2023-04-11T16:33:10.670Z,91.20
2023-04-11T16:35:57.928Z,91.70
2023-04-11T16:38:51.543Z,92.40
2023-04-11T16:41:38.758Z,92.60
2023-04-11T16:44:32.614Z,93.00
2023-04-11T16:47:25.968Z,93.50
2023-04-11T16:50:19.602Z,94.30
2023-04-11T16:53:06.899Z,94.30
2023-04-11T16:56:02.721Z,94.60
2023-04-11T16:58:49.889Z,94.70
2023-04-11T17:01:43.709Z,95.10
2023-04-11T17:04:37.669Z,95.70
2023-04-11T17:07:31.624Z,96.40
2023-04-11T17:10:25.615Z,97.00
2023-04-11T17:13:12.794Z,97.40
2023-04-11T17:16:06.621Z,97.90
2023-04-11T17:18:53.812Z,98.30
2023-04-11T17:21:47.705Z,98.70
2023-04-11T17:24:34.906Z,99.10
2023-04-11T17:27:28.930Z,99.50
2023-04-11T17:30:16.888Z,99.90
2023-04-11T17:33:10.795Z,99.90
2023-04-11T17:35:57.956Z,99.90
2023-04-11T17:38:52.733Z,99.90
2023-04-11T17:41:46.748Z,99.90
2023-04-11T17:44:34.100Z,99.90
2023-04-11T17:47:27.708Z,99.90
2023-04-11T17:50:15.323Z,99.90
2023-04-11T17:53:08.697Z,99.90
2023-04-11T17:56:03.685Z,99.90
2023-04-11T17:58:57.751Z,99.90
2023-04-11T18:01:53.765Z,99.90
2023-04-11T18:04:42.531Z,99.90
2023-04-11T18:07:35.764Z,99.90
2023-04-11T18:10:23.553Z,99.90
2023-04-11T18:13:16.800Z,99.90
2023-04-11T18:16:04.366Z,99.90
2023-04-11T18:18:57.818Z,99.90
2023-04-11T18:21:44.993Z,99.90
2023-04-11T18:24:38.729Z,99.90
2023-04-11T18:27:27.076Z,99.90
2023-04-11T18:30:22.767Z,99.90
2023-04-11T18:33:09.914Z,99.90
2023-04-11T18:36:03.858Z,99.90
2023-04-11T18:38:51.347Z,99.90
2023-04-11T18:42:00.810Z,99.90
2023-04-11T18:44:48.009Z,99.90
2023-04-11T18:47:42.043Z,99.90
2023-04-11T18:50:30.740Z,99.90
2023-04-11T18:53:24.782Z,99.90
2023-04-11T18:56:11.842Z,99.90
2023-04-11T18:59:09.330Z,99.90
2023-04-11T19:02:04.005Z,99.90
2023-04-11T19:05:00.970Z,99.90
2023-04-11T19:07:48.346Z,99.90
2023-04-11T19:10:48.841Z,99.90
2023-04-11T19:13:36.046Z,99.90
2023-04-11T19:16:29.825Z,99.90
2023-04-11T19:19:23.955Z,99.90
2023-04-11T19:22:11.310Z,99.90
2023-04-11T19:25:04.806Z,99.90
2023-04-11T19:27:58.885Z,99.90
2023-04-11T19:30:46.570Z,99.90
2023-04-11T19:33:42.830Z,99.90
2023-04-11T19:36:33.503Z,99.90
2023-04-11T19:39:27.886Z,99.90
2023-04-11T19:42:21.908Z,99.90
2023-04-11T19:45:10.501Z,99.90
2023-04-11T19:48:10.897Z,99.90
2023-04-11T19:50:57.987Z,99.90
2023-04-11T19:53:59.104Z,99.90
2023-04-11T19:56:49.185Z,99.90
2023-04-11T19:59:42.962Z,99.90
2023-04-11T20:02:30.146Z,99.90
2023-04-11T20:05:25.900Z,99.90
2023-04-11T20:08:19.997Z,99.90
2023-04-11T20:11:13.927Z,99.90
2023-04-11T20:14:07.880Z,99.90
2023-04-11T20:16:55.125Z,99.90
2023-04-11T20:19:49.953Z,99.90
2023-04-11T20:22:46.944Z,99.90
2023-04-11T20:25:44.117Z,99.90
2023-04-11T20:28:37.951Z,99.90
2023-04-11T20:31:25.559Z,99.90
2023-04-11T20:34:18.946Z,99.90
2023-04-11T20:37:06.968Z,99.90
2023-04-11T20:40:00.991Z,99.90
2023-04-11T20:42:49.614Z,99.90
2023-04-11T20:45:44.034Z,99.90
2023-04-11T20:48:38.976Z,99.90
2023-04-11T20:51:26.755Z,99.90
2023-04-11T20:54:21.085Z,99.90
2023-04-11T20:57:08.237Z,99.90
2023-04-11T21:00:02.943Z,99.90
2023-04-11T21:02:57.025Z,99.90
2023-04-11T21:05:46.645Z,99.90
2023-04-11T21:08:43.992Z,99.90
2023-04-11T21:11:31.808Z,99.90
2023-04-11T21:14:25.400Z,99.90
2023-04-11T21:17:19.994Z,99.90
2023-04-11T21:20:24.018Z,99.90
2023-04-11T21:23:11.202Z,99.90
2023-04-11T21:26:05.017Z,99.90
2023-04-11T21:28:52.184Z,99.90
2023-04-11T21:31:46.060Z,99.90
2023-04-11T21:34:33.288Z,99.90
2023-04-11T21:37:27.086Z,99.90
2023-04-11T21:40:21.061Z,99.90
2023-04-11T21:43:15.054Z,99.90
2023-04-11T21:46:02.169Z,99.90
2023-04-11T21:48:56.082Z,99.90
2023-04-11T21:51:43.428Z,99.90
2023-04-11T21:54:37.068Z,99.90
2023-04-11T21:57:33.577Z,99.90
2023-04-11T22:00:27.187Z,99.90
2023-04-11T22:03:19.809Z,99.90
2023-04-11T22:06:14.088Z,99.90
2023-04-11T22:09:01.381Z,99.90
2023-04-11T22:11:55.103Z,99.90
2023-04-11T22:14:42.209Z,99.90
2023-04-11T22:17:38.145Z,99.90
2023-04-11T22:20:32.115Z,99.90
2023-04-11T22:23:19.162Z,99.90
2023-04-11T22:26:13.112Z,99.90
2023-04-11T22:29:03.835Z,99.90
2023-04-11T22:31:58.273Z,99.90
2023-04-11T22:34:45.534Z,99.90
2023-04-11T22:37:39.218Z,99.90
2023-04-11T22:40:33.208Z,99.90
2023-04-11T22:43:27.141Z,99.90
2023-04-11T22:46:14.371Z,99.90
2023-04-11T22:49:08.207Z,99.90
2023-04-11T22:52:06.310Z,99.90
2023-04-11T22:54:54.953Z,99.90
2023-04-11T22:57:49.168Z,99.90
2023-04-11T23:00:45.205Z,99.90
2023-04-11T23:03:39.136Z,99.90
2023-04-11T23:06:27.330Z,99.90
2023-04-11T23:09:21.184Z,99.90
2023-04-11T23:12:08.360Z,99.90
2023-04-11T23:15:02.352Z,99.90
2023-04-11T23:17:50.286Z,99.90
2023-04-11T23:20:47.209Z,99.90
2023-04-11T23:23:34.256Z,99.90
2023-04-11T23:26:29.251Z,99.90
2023-04-11T23:29:23.232Z,99.90
2023-04-11T23:32:17.271Z,99.90
2023-04-11T23:35:13.270Z,99.90
2023-04-11T23:38:01.927Z,99.90
2023-04-11T23:40:56.231Z,99.90
2023-04-11T23:43:43.407Z,99.90
2023-04-11T23:46:37.330Z,99.90
2023-04-11T23:49:24.469Z,99.90
2023-04-11T23:52:19.344Z,99.90
2023-04-11T23:55:14.244Z,99.90
2023-04-11T23:58:08.291Z,99.90
